sensor_id;sensor_type;location;lat;lon;timestamp;temperature;humidity
75281;HTU21D;63874;47.230;39.620;2024-01-15T00:01:25;0.77;91.28
75281;HTU21D;63874;47.230;39.620;2024-01-15T00:03:54;0.77;91.31
75281;HTU21D;63874;47.230;39.620;2024-01-15T00:06:25;0.76;91.28
75281;HTU21D;63874;47.230;39.620;2024-01-15T00:08:52;0.76;91.31
75281;HTU21D;63874;47.230;39.620;2024-01-15T00:11:18;0.73;91.31
75281;HTU21D;63874;47.230;39.620;2024-01-15T00:13:49;0.69;91.34
75281;HTU21D;63874;47.230;39.620;2024-01-15T00:16:15;0.71;91.27
75281;HTU21D;63874;47.230;39.620;2024-01-15T00:18:40;0.71;91.20
75281;HTU21D;63874;47.230;39.620;2024-01-15T00:21:06;0.69;91.26
75281;HTU21D;63874;47.230;39.620;2024-01-15T00:23:32;0.68;91.28
75281;HTU21D;63874;47.230;39.620;2024-01-15T00:25:59;0.67;91.33
75281;HTU21D;63874;47.230;39.620;2024-01-15T00:28:30;0.69;91.22
75281;HTU21D;63874;47.230;39.620;2024-01-15T00:30:55;0.71;91.08
75281;HTU21D;63874;47.230;39.620;2024-01-15T00:33:23;0.68;91.14
75281;HTU21D;63874;47.230;39.620;2024-01-15T00:35:48;0.66;90.94
75281;HTU21D;63874;47.230;39.620;2024-01-15T00:38:18;0.64;91.02
75281;HTU21D;63874;47.230;39.620;2024-01-15T00:40:48;0.57;91.17
75281;HTU21D;63874;47.230;39.620;2024-01-15T00:43:13;0.55;91.10
75281;HTU21D;63874;47.230;39.620;2024-01-15T00:45:45;0.57;91.13
75281;HTU21D;63874;47.230;39.620;2024-01-15T00:48:10;0.57;91.11
75281;HTU21D;63874;47.230;39.620;2024-01-15T00:50:38;0.58;91.26
75281;HTU21D;63874;47.230;39.620;2024-01-15T00:53:04;0.59;91.14
75281;HTU21D;63874;47.230;39.620;2024-01-15T00:55:31;0.57;91.24
75281;HTU21D;63874;47.230;39.620;2024-01-15T00:58:00;0.58;91.24
75281;HTU21D;63874;47.230;39.620;2024-01-15T01:00:27;0.58;91.32
75281;HTU21D;63874;47.230;39.620;2024-01-15T01:02:53;0.62;91.24
75281;HTU21D;63874;47.230;39.620;2024-01-15T01:05:18;0.61;91.29
75281;HTU21D;63874;47.230;39.620;2024-01-15T01:07:44;0.60;91.29
75281;HTU21D;63874;47.230;39.620;2024-01-15T01:10:11;0.60;91.24
75281;HTU21D;63874;47.230;39.620;2024-01-15T01:12:37;0.60;91.29
75281;HTU21D;63874;47.230;39.620;2024-01-15T01:15:02;0.60;91.25
75281;HTU21D;63874;47.230;39.620;2024-01-15T01:17:28;0.62;91.28
75281;HTU21D;63874;47.230;39.620;2024-01-15T01:20:00;0.63;91.29
75281;HTU21D;63874;47.230;39.620;2024-01-15T01:22:29;0.69;91.25
75281;HTU21D;63874;47.230;39.620;2024-01-15T01:24:58;0.74;91.23
75281;HTU21D;63874;47.230;39.620;2024-01-15T01:27:26;0.77;91.31
75281;HTU21D;63874;47.230;39.620;2024-01-15T01:29:54;0.82;91.28
75281;HTU21D;63874;47.230;39.620;2024-01-15T01:32:20;0.82;91.20
75281;HTU21D;63874;47.230;39.620;2024-01-15T01:34:46;0.82;91.22
75281;HTU21D;63874;47.230;39.620;2024-01-15T01:37:16;0.80;91.19
75281;HTU21D;63874;47.230;39.620;2024-01-15T01:39:52;0.83;91.23
75281;HTU21D;63874;47.230;39.620;2024-01-15T01:42:18;0.84;91.34
75281;HTU21D;63874;47.230;39.620;2024-01-15T01:44:45;0.90;91.34
75281;HTU21D;63874;47.230;39.620;2024-01-15T01:47:12;0.93;91.26
75281;HTU21D;63874;47.230;39.620;2024-01-15T01:49:40;0.96;91.18
75281;HTU21D;63874;47.230;39.620;2024-01-15T01:52:06;1.01;91.21
75281;HTU21D;63874;47.230;39.620;2024-01-15T01:54:34;0.99;91.21
75281;HTU21D;63874;47.230;39.620;2024-01-15T01:57:01;1.01;91.11
75281;HTU21D;63874;47.230;39.620;2024-01-15T01:59:28;1.05;91.08
75281;HTU21D;63874;47.230;39.620;2024-01-15T02:01:55;1.06;91.09
75281;HTU21D;63874;47.230;39.620;2024-01-15T02:04:24;1.09;90.95
75281;HTU21D;63874;47.230;39.620;2024-01-15T02:06:50;1.11;90.93
75281;HTU21D;63874;47.230;39.620;2024-01-15T02:09:23;1.14;90.84
75281;HTU21D;63874;47.230;39.620;2024-01-15T02:11:48;1.18;90.77
75281;HTU21D;63874;47.230;39.620;2024-01-15T02:14:15;1.21;90.71
75281;HTU21D;63874;47.230;39.620;2024-01-15T02:16:41;1.24;90.61
75281;HTU21D;63874;47.230;39.620;2024-01-15T02:19:07;1.28;90.53
75281;HTU21D;63874;47.230;39.620;2024-01-15T02:21:33;1.28;90.53
75281;HTU21D;63874;47.230;39.620;2024-01-15T02:23:59;1.31;90.44
75281;HTU21D;63874;47.230;39.620;2024-01-15T02:26:27;1.33;90.47
75281;HTU21D;63874;47.230;39.620;2024-01-15T02:28:52;1.35;90.60
75281;HTU21D;63874;47.230;39.620;2024-01-15T02:31:18;1.35;90.59
75281;HTU21D;63874;47.230;39.620;2024-01-15T02:33:44;1.38;90.46
75281;HTU21D;63874;47.230;39.620;2024-01-15T02:36:14;1.41;90.28
75281;HTU21D;63874;47.230;39.620;2024-01-15T02:38:41;1.40;90.33
75281;HTU21D;63874;47.230;39.620;2024-01-15T02:41:10;1.42;90.19
75281;HTU21D;63874;47.230;39.620;2024-01-15T02:43:36;1.41;90.08
75281;HTU21D;63874;47.230;39.620;2024-01-15T02:46:02;1.42;89.97
75281;HTU21D;63874;47.230;39.620;2024-01-15T02:48:28;1.38;89.92
75281;HTU21D;63874;47.230;39.620;2024-01-15T02:50:53;1.34;89.77
75281;HTU21D;63874;47.230;39.620;2024-01-15T02:53:19;1.24;89.91
75281;HTU21D;63874;47.230;39.620;2024-01-15T02:55:46;1.12;90.03
75281;HTU21D;63874;47.230;39.620;2024-01-15T02:58:11;1.05;90.17
75281;HTU21D;63874;47.230;39.620;2024-01-15T03:00:37;0.96;90.43
75281;HTU21D;63874;47.230;39.620;2024-01-15T03:03:03;0.94;90.42
75281;HTU21D;63874;47.230;39.620;2024-01-15T03:05:29;0.90;90.51
75281;HTU21D;63874;47.230;39.620;2024-01-15T03:07:57;0.87;90.63
75281;HTU21D;63874;47.230;39.620;2024-01-15T03:10:23;0.89;90.66
75281;HTU21D;63874;47.230;39.620;2024-01-15T03:12:49;0.83;90.95
75281;HTU21D;63874;47.230;39.620;2024-01-15T03:15:14;0.81;90.95
75281;HTU21D;63874;47.230;39.620;2024-01-15T03:17:43;0.78;91.02
75281;HTU21D;63874;47.230;39.620;2024-01-15T03:20:09;0.77;91.01
75281;HTU21D;63874;47.230;39.620;2024-01-15T03:22:35;0.67;91.37
75281;HTU21D;63874;47.230;39.620;2024-01-15T03:25:04;0.71;91.38
75281;HTU21D;63874;47.230;39.620;2024-01-15T03:27:29;0.67;91.40
75281;HTU21D;63874;47.230;39.620;2024-01-15T03:29:56;0.64;91.43
75281;HTU21D;63874;47.230;39.620;2024-01-15T03:32:22;0.64;91.71
75281;HTU21D;63874;47.230;39.620;2024-01-15T03:34:53;0.62;91.69
75281;HTU21D;63874;47.230;39.620;2024-01-15T03:37:19;0.61;91.90
75281;HTU21D;63874;47.230;39.620;2024-01-15T03:39:45;0.59;91.92
75281;HTU21D;63874;47.230;39.620;2024-01-15T03:42:15;0.59;91.95
75281;HTU21D;63874;47.230;39.620;2024-01-15T03:44:41;0.60;92.01
75281;HTU21D;63874;47.230;39.620;2024-01-15T03:47:06;0.60;92.19
75281;HTU21D;63874;47.230;39.620;2024-01-15T03:49:32;0.60;92.20
75281;HTU21D;63874;47.230;39.620;2024-01-15T03:51:59;0.60;92.21
75281;HTU21D;63874;47.230;39.620;2024-01-15T03:54:26;0.62;92.23
75281;HTU21D;63874;47.230;39.620;2024-01-15T03:56:53;0.65;92.19
75281;HTU21D;63874;47.230;39.620;2024-01-15T03:59:30;0.66;92.27
75281;HTU21D;63874;47.230;39.620;2024-01-15T04:01:57;0.67;92.29
75281;HTU21D;63874;47.230;39.620;2024-01-15T04:04:27;0.69;92.27
75281;HTU21D;63874;47.230;39.620;2024-01-15T04:06:59;0.73;92.15
75281;HTU21D;63874;47.230;39.620;2024-01-15T04:09:25;0.73;92.18
75281;HTU21D;63874;47.230;39.620;2024-01-15T04:11:50;0.74;92.20
75281;HTU21D;63874;47.230;39.620;2024-01-15T04:14:16;0.76;92.05
75281;HTU21D;63874;47.230;39.620;2024-01-15T04:16:42;0.75;92.03
75281;HTU21D;63874;47.230;39.620;2024-01-15T04:19:08;0.74;92.05
75281;HTU21D;63874;47.230;39.620;2024-01-15T04:21:35;0.72;91.94
75281;HTU21D;63874;47.230;39.620;2024-01-15T04:24:01;0.71;91.90
75281;HTU21D;63874;47.230;39.620;2024-01-15T04:26:27;0.66;91.90
75281;HTU21D;63874;47.230;39.620;2024-01-15T04:28:53;0.63;91.93
75281;HTU21D;63874;47.230;39.620;2024-01-15T04:31:22;0.61;91.98
75281;HTU21D;63874;47.230;39.620;2024-01-15T04:33:48;0.65;92.01
75281;HTU21D;63874;47.230;39.620;2024-01-15T04:36:19;0.62;92.03
75281;HTU21D;63874;47.230;39.620;2024-01-15T04:38:49;0.59;92.06
75281;HTU21D;63874;47.230;39.620;2024-01-15T04:41:16;0.59;92.03
75281;HTU21D;63874;47.230;39.620;2024-01-15T04:43:42;0.59;91.98
75281;HTU21D;63874;47.230;39.620;2024-01-15T04:46:09;0.59;91.95
75281;HTU21D;63874;47.230;39.620;2024-01-15T04:48:35;0.54;91.91
75281;HTU21D;63874;47.230;39.620;2024-01-15T04:51:00;0.54;91.87
75281;HTU21D;63874;47.230;39.620;2024-01-15T04:53:29;0.52;91.83
75281;HTU21D;63874;47.230;39.620;2024-01-15T04:55:55;0.53;91.77
75281;HTU21D;63874;47.230;39.620;2024-01-15T04:58:23;0.49;91.76
75281;HTU21D;63874;47.230;39.620;2024-01-15T05:00:53;0.48;91.64
75281;HTU21D;63874;47.230;39.620;2024-01-15T05:03:21;0.45;91.60
75281;HTU21D;63874;47.230;39.620;2024-01-15T05:05:47;0.42;91.54
75281;HTU21D;63874;47.230;39.620;2024-01-15T05:08:12;0.39;91.54
75281;HTU21D;63874;47.230;39.620;2024-01-15T05:10:38;0.38;91.49
75281;HTU21D;63874;47.230;39.620;2024-01-15T05:13:04;0.37;91.44
75281;HTU21D;63874;47.230;39.620;2024-01-15T05:15:30;0.33;91.52
75281;HTU21D;63874;47.230;39.620;2024-01-15T05:17:59;0.32;91.50
75281;HTU21D;63874;47.230;39.620;2024-01-15T05:20:25;0.32;91.40
75281;HTU21D;63874;47.230;39.620;2024-01-15T05:22:53;0.31;91.37
75281;HTU21D;63874;47.230;39.620;2024-01-15T05:25:19;0.28;91.31
75281;HTU21D;63874;47.230;39.620;2024-01-15T05:27:46;0.23;91.33
75281;HTU21D;63874;47.230;39.620;2024-01-15T05:30:14;0.25;91.24
75281;HTU21D;63874;47.230;39.620;2024-01-15T05:32:40;0.22;91.22
75281;HTU21D;63874;47.230;39.620;2024-01-15T05:35:08;0.20;91.22
75281;HTU21D;63874;47.230;39.620;2024-01-15T05:37:34;0.19;91.27
75281;HTU21D;63874;47.230;39.620;2024-01-15T05:40:00;0.18;91.22
75281;HTU21D;63874;47.230;39.620;2024-01-15T05:42:27;0.15;91.27
75281;HTU21D;63874;47.230;39.620;2024-01-15T05:45:02;0.15;91.34
75281;HTU21D;63874;47.230;39.620;2024-01-15T05:47:31;0.17;91.37
75281;HTU21D;63874;47.230;39.620;2024-01-15T05:49:57;0.20;91.38
75281;HTU21D;63874;47.230;39.620;2024-01-15T05:52:28;0.22;91.34
75281;HTU21D;63874;47.230;39.620;2024-01-15T05:54:54;0.23;91.33
75281;HTU21D;63874;47.230;39.620;2024-01-15T05:57:22;0.27;91.32
75281;HTU21D;63874;47.230;39.620;2024-01-15T05:59:48;0.27;91.31
75281;HTU21D;63874;47.230;39.620;2024-01-15T06:02:20;0.29;91.33
75281;HTU21D;63874;47.230;39.620;2024-01-15T06:04:48;0.31;91.25
75281;HTU21D;63874;47.230;39.620;2024-01-15T06:07:14;0.32;91.18
75281;HTU21D;63874;47.230;39.620;2024-01-15T06:09:40;0.33;91.15
75281;HTU21D;63874;47.230;39.620;2024-01-15T06:12:09;0.35;91.08
75281;HTU21D;63874;47.230;39.620;2024-01-15T06:14:44;0.38;91.03
75281;HTU21D;63874;47.230;39.620;2024-01-15T06:17:10;0.42;90.82
75281;HTU21D;63874;47.230;39.620;2024-01-15T06:19:39;0.44;90.73
75281;HTU21D;63874;47.230;39.620;2024-01-15T06:22:08;0.47;90.60
75281;HTU21D;63874;47.230;39.620;2024-01-15T06:24:34;0.48;90.50
75281;HTU21D;63874;47.230;39.620;2024-01-15T06:26:59;0.49;90.44
75281;HTU21D;63874;47.230;39.620;2024-01-15T06:29:25;0.52;90.37
75281;HTU21D;63874;47.230;39.620;2024-01-15T06:32:03;0.55;90.20
75281;HTU21D;63874;47.230;39.620;2024-01-15T06:34:38;0.55;90.32
75281;HTU21D;63874;47.230;39.620;2024-01-15T06:37:05;0.58;90.31
75281;HTU21D;63874;47.230;39.620;2024-01-15T06:39:35;0.60;90.30
75281;HTU21D;63874;47.230;39.620;2024-01-15T06:42:01;0.68;90.47
75281;HTU21D;63874;47.230;39.620;2024-01-15T06:44:30;0.74;90.34
75281;HTU21D;63874;47.230;39.620;2024-01-15T06:47:16;0.78;89.96
75281;HTU21D;63874;47.230;39.620;2024-01-15T06:49:43;0.79;89.75
75281;HTU21D;63874;47.230;39.620;2024-01-15T06:52:09;0.80;89.60
75281;HTU21D;63874;47.230;39.620;2024-01-15T06:54:35;0.76;89.67
75281;HTU21D;63874;47.230;39.620;2024-01-15T06:57:01;0.80;89.74
75281;HTU21D;63874;47.230;39.620;2024-01-15T06:59:30;0.83;89.76
75281;HTU21D;63874;47.230;39.620;2024-01-15T07:02:05;0.86;89.69
75281;HTU21D;63874;47.230;39.620;2024-01-15T07:04:31;0.87;89.64
75281;HTU21D;63874;47.230;39.620;2024-01-15T07:06:57;0.92;89.57
75281;HTU21D;63874;47.230;39.620;2024-01-15T07:09:24;0.92;89.55
75281;HTU21D;63874;47.230;39.620;2024-01-15T07:11:51;0.97;89.47
75281;HTU21D;63874;47.230;39.620;2024-01-15T07:14:17;0.98;89.13
75281;HTU21D;63874;47.230;39.620;2024-01-15T07:16:44;1.02;88.78
75281;HTU21D;63874;47.230;39.620;2024-01-15T07:19:13;1.05;88.39
75281;HTU21D;63874;47.230;39.620;2024-01-15T07:21:39;1.06;87.83
75281;HTU21D;63874;47.230;39.620;2024-01-15T07:24:08;1.06;88.02
75281;HTU21D;63874;47.230;39.620;2024-01-15T07:26:34;1.09;87.80
75281;HTU21D;63874;47.230;39.620;2024-01-15T07:29:02;1.13;87.46
75281;HTU21D;63874;47.230;39.620;2024-01-15T07:31:30;1.18;87.67
75281;HTU21D;63874;47.230;39.620;2024-01-15T07:33:57;1.21;87.51
75281;HTU21D;63874;47.230;39.620;2024-01-15T07:36:23;1.24;87.53
75281;HTU21D;63874;47.230;39.620;2024-01-15T07:38:48;1.27;87.55
75281;HTU21D;63874;47.230;39.620;2024-01-15T07:41:14;1.32;87.22
75281;HTU21D;63874;47.230;39.620;2024-01-15T07:43:40;1.35;86.86
75281;HTU21D;63874;47.230;39.620;2024-01-15T07:46:05;1.37;86.62
75281;HTU21D;63874;47.230;39.620;2024-01-15T07:48:33;1.39;86.58
75281;HTU21D;63874;47.230;39.620;2024-01-15T07:50:59;1.41;86.88
75281;HTU21D;63874;47.230;39.620;2024-01-15T07:53:25;1.49;86.77
75281;HTU21D;63874;47.230;39.620;2024-01-15T07:55:52;1.53;86.86
75281;HTU21D;63874;47.230;39.620;2024-01-15T07:58:17;1.60;86.54
75281;HTU21D;63874;47.230;39.620;2024-01-15T08:00:43;1.63;86.37
75281;HTU21D;63874;47.230;39.620;2024-01-15T08:03:13;1.65;85.86
75281;HTU21D;63874;47.230;39.620;2024-01-15T08:05:39;1.69;85.48
75281;HTU21D;63874;47.230;39.620;2024-01-15T08:08:04;1.71;85.83
75281;HTU21D;63874;47.230;39.620;2024-01-15T08:10:30;1.75;85.53
75281;HTU21D;63874;47.230;39.620;2024-01-15T08:12:56;1.78;85.79
75281;HTU21D;63874;47.230;39.620;2024-01-15T08:15:21;1.83;85.65
75281;HTU21D;63874;47.230;39.620;2024-01-15T08:17:51;1.90;85.57
75281;HTU21D;63874;47.230;39.620;2024-01-15T08:20:17;1.93;85.16
75281;HTU21D;63874;47.230;39.620;2024-01-15T08:22:46;1.94;85.04
75281;HTU21D;63874;47.230;39.620;2024-01-15T08:25:16;1.96;84.40
75281;HTU21D;63874;47.230;39.620;2024-01-15T08:27:42;1.95;83.75
75281;HTU21D;63874;47.230;39.620;2024-01-15T08:30:08;1.95;83.61
75281;HTU21D;63874;47.230;39.620;2024-01-15T08:32:37;2.00;82.49
75281;HTU21D;63874;47.230;39.620;2024-01-15T08:35:10;2.00;81.96
75281;HTU21D;63874;47.230;39.620;2024-01-15T08:37:36;1.99;81.81
75281;HTU21D;63874;47.230;39.620;2024-01-15T08:40:05;2.00;81.54
75281;HTU21D;63874;47.230;39.620;2024-01-15T08:42:34;2.03;81.76
75281;HTU21D;63874;47.230;39.620;2024-01-15T08:45:00;2.05;80.31
75281;HTU21D;63874;47.230;39.620;2024-01-15T08:47:29;2.06;80.71
75281;HTU21D;63874;47.230;39.620;2024-01-15T08:50:00;2.09;80.27
75281;HTU21D;63874;47.230;39.620;2024-01-15T08:52:28;2.08;80.25
75281;HTU21D;63874;47.230;39.620;2024-01-15T08:54:57;2.12;80.11
75281;HTU21D;63874;47.230;39.620;2024-01-15T08:57:23;2.15;80.59
75281;HTU21D;63874;47.230;39.620;2024-01-15T08:59:49;2.24;80.72
75281;HTU21D;63874;47.230;39.620;2024-01-15T09:02:17;2.32;80.70
75281;HTU21D;63874;47.230;39.620;2024-01-15T09:04:43;2.40;80.49
75281;HTU21D;63874;47.230;39.620;2024-01-15T09:07:09;2.47;80.43
75281;HTU21D;63874;47.230;39.620;2024-01-15T09:09:47;2.55;79.93
75281;HTU21D;63874;47.230;39.620;2024-01-15T09:12:13;2.61;79.27
75281;HTU21D;63874;47.230;39.620;2024-01-15T09:14:40;2.67;78.88
75281;HTU21D;63874;47.230;39.620;2024-01-15T09:17:09;2.71;78.61
75281;HTU21D;63874;47.230;39.620;2024-01-15T09:19:35;2.76;79.04
75281;HTU21D;63874;47.230;39.620;2024-01-15T09:22:04;2.95;78.72
75281;HTU21D;63874;47.230;39.620;2024-01-15T09:24:30;3.45;78.28
75281;HTU21D;63874;47.230;39.620;2024-01-15T09:27:01;4.26;76.46
75281;HTU21D;63874;47.230;39.620;2024-01-15T09:29:28;5.04;74.58
75281;HTU21D;63874;47.230;39.620;2024-01-15T09:31:54;5.62;72.77
75281;HTU21D;63874;47.230;39.620;2024-01-15T09:34:27;6.16;72.45
75281;HTU21D;63874;47.230;39.620;2024-01-15T09:36:53;6.76;70.93
75281;HTU21D;63874;47.230;39.620;2024-01-15T09:39:22;7.34;68.99
75281;HTU21D;63874;47.230;39.620;2024-01-15T09:41:51;7.85;68.18
75281;HTU21D;63874;47.230;39.620;2024-01-15T09:44:20;8.28;65.95
75281;HTU21D;63874;47.230;39.620;2024-01-15T09:46:49;8.71;62.53
75281;HTU21D;63874;47.230;39.620;2024-01-15T09:49:20;9.21;61.96
75281;HTU21D;63874;47.230;39.620;2024-01-15T09:51:46;9.39;62.44
75281;HTU21D;63874;47.230;39.620;2024-01-15T09:54:16;9.34;63.49
75281;HTU21D;63874;47.230;39.620;2024-01-15T09:56:46;9.35;63.96
75281;HTU21D;63874;47.230;39.620;2024-01-15T09:59:15;9.27;63.02
75281;HTU21D;63874;47.230;39.620;2024-01-15T10:01:41;9.33;65.02
75281;HTU21D;63874;47.230;39.620;2024-01-15T10:04:27;9.11;64.96
75281;HTU21D;63874;47.230;39.620;2024-01-15T10:06:54;9.31;61.93
75281;HTU21D;63874;47.230;39.620;2024-01-15T10:09:23;9.36;63.60
75281;HTU21D;63874;47.230;39.620;2024-01-15T10:11:49;9.19;62.24
75281;HTU21D;63874;47.230;39.620;2024-01-15T10:14:16;8.81;63.76
75281;HTU21D;63874;47.230;39.620;2024-01-15T10:16:41;8.59;64.29
75281;HTU21D;63874;47.230;39.620;2024-01-15T10:19:11;8.50;63.52
75281;HTU21D;63874;47.230;39.620;2024-01-15T10:21:38;8.45;62.89
75281;HTU21D;63874;47.230;39.620;2024-01-15T10:24:04;8.59;64.36
75281;HTU21D;63874;47.230;39.620;2024-01-15T10:26:34;8.83;63.93
75281;HTU21D;63874;47.230;39.620;2024-01-15T10:29:00;8.89;61.97
75281;HTU21D;63874;47.230;39.620;2024-01-15T10:31:30;8.81;63.24
75281;HTU21D;63874;47.230;39.620;2024-01-15T10:34:03;8.92;63.06
75281;HTU21D;63874;47.230;39.620;2024-01-15T10:36:36;9.19;62.49
75281;HTU21D;63874;47.230;39.620;2024-01-15T10:39:07;9.18;62.28
75281;HTU21D;63874;47.230;39.620;2024-01-15T10:41:53;9.46;63.63
75281;HTU21D;63874;47.230;39.620;2024-01-15T10:44:19;9.97;63.26
75281;HTU21D;63874;47.230;39.620;2024-01-15T10:46:46;10.08;61.63
75281;HTU21D;63874;47.230;39.620;2024-01-15T10:49:14;10.13;60.93
75281;HTU21D;63874;47.230;39.620;2024-01-15T10:51:42;9.99;59.42
75281;HTU21D;63874;47.230;39.620;2024-01-15T10:54:11;10.07;58.99
75281;HTU21D;63874;47.230;39.620;2024-01-15T10:56:41;10.03;58.66
75281;HTU21D;63874;47.230;39.620;2024-01-15T10:59:08;10.07;58.29
75281;HTU21D;63874;47.230;39.620;2024-01-15T11:01:41;10.27;57.93
75281;HTU21D;63874;47.230;39.620;2024-01-15T11:04:23;10.31;57.90
75281;HTU21D;63874;47.230;39.620;2024-01-15T11:06:55;10.18;57.41
75281;HTU21D;63874;47.230;39.620;2024-01-15T11:09:22;10.30;58.21
75281;HTU21D;63874;47.230;39.620;2024-01-15T11:11:52;10.69;56.77
75281;HTU21D;63874;47.230;39.620;2024-01-15T11:14:40;11.05;55.73
75281;HTU21D;63874;47.230;39.620;2024-01-15T11:17:09;10.96;54.55
75281;HTU21D;63874;47.230;39.620;2024-01-15T11:19:48;10.73;55.22
75281;HTU21D;63874;47.230;39.620;2024-01-15T11:24:55;10.83;56.89
75281;HTU21D;63874;47.230;39.620;2024-01-15T11:27:42;10.37;55.73
75281;HTU21D;63874;47.230;39.620;2024-01-15T11:30:09;9.38;56.64
75281;HTU21D;63874;47.230;39.620;2024-01-15T11:32:36;8.47;57.24
75281;HTU21D;63874;47.230;39.620;2024-01-15T11:35:02;7.52;58.20
75281;HTU21D;63874;47.230;39.620;2024-01-15T11:37:57;6.75;59.22
75281;HTU21D;63874;47.230;39.620;2024-01-15T11:40:17;6.06;60.57
75281;HTU21D;63874;47.230;39.620;2024-01-15T11:42:44;5.50;61.50
75281;HTU21D;63874;47.230;39.620;2024-01-15T11:45:10;5.10;62.30
75281;HTU21D;63874;47.230;39.620;2024-01-15T11:50:15;4.42;64.19
75281;HTU21D;63874;47.230;39.620;2024-01-15T11:52:43;4.18;64.82
75281;HTU21D;63874;47.230;39.620;2024-01-15T11:55:22;4.00;65.81
75281;HTU21D;63874;47.230;39.620;2024-01-15T11:57:52;3.87;66.31
75281;HTU21D;63874;47.230;39.620;2024-01-15T12:00:33;3.75;66.80
75281;HTU21D;63874;47.230;39.620;2024-01-15T12:02:59;3.61;67.12
75281;HTU21D;63874;47.230;39.620;2024-01-15T12:05:27;3.46;67.45
75281;HTU21D;63874;47.230;39.620;2024-01-15T12:07:52;3.34;67.80
75281;HTU21D;63874;47.230;39.620;2024-01-15T12:10:21;3.24;68.11
75281;HTU21D;63874;47.230;39.620;2024-01-15T12:12:56;3.13;68.48
75281;HTU21D;63874;47.230;39.620;2024-01-15T12:15:25;3.08;69.01
75281;HTU21D;63874;47.230;39.620;2024-01-15T12:17:51;2.98;69.13
75281;HTU21D;63874;47.230;39.620;2024-01-15T12:20:20;2.93;69.35
75281;HTU21D;63874;47.230;39.620;2024-01-15T12:22:47;2.90;69.59
75281;HTU21D;63874;47.230;39.620;2024-01-15T12:25:13;2.88;69.88
75281;HTU21D;63874;47.230;39.620;2024-01-15T12:27:38;2.87;70.10
75281;HTU21D;63874;47.230;39.620;2024-01-15T12:30:04;2.85;70.38
75281;HTU21D;63874;47.230;39.620;2024-01-15T12:32:31;2.85;70.50
75281;HTU21D;63874;47.230;39.620;2024-01-15T12:35:00;2.84;70.65
75281;HTU21D;63874;47.230;39.620;2024-01-15T12:37:26;2.84;70.76
75281;HTU21D;63874;47.230;39.620;2024-01-15T12:39:53;2.82;70.95
75281;HTU21D;63874;47.230;39.620;2024-01-15T12:42:22;2.82;71.12
75281;HTU21D;63874;47.230;39.620;2024-01-15T12:44:57;2.85;71.34
75281;HTU21D;63874;47.230;39.620;2024-01-15T12:47:24;2.87;71.45
75281;HTU21D;63874;47.230;39.620;2024-01-15T12:49:51;2.84;71.58
75281;HTU21D;63874;47.230;39.620;2024-01-15T12:52:21;2.82;71.80
75281;HTU21D;63874;47.230;39.620;2024-01-15T12:54:51;2.78;71.93
75281;HTU21D;63874;47.230;39.620;2024-01-15T12:57:17;2.76;72.22
75281;HTU21D;63874;47.230;39.620;2024-01-15T12:59:43;2.76;72.29
75281;HTU21D;63874;47.230;39.620;2024-01-15T13:02:10;2.76;72.57
75281;HTU21D;63874;47.230;39.620;2024-01-15T13:04:37;2.73;73.02
75281;HTU21D;63874;47.230;39.620;2024-01-15T13:07:02;2.69;73.16
75281;HTU21D;63874;47.230;39.620;2024-01-15T13:09:28;2.60;73.32
75281;HTU21D;63874;47.230;39.620;2024-01-15T13:11:58;2.53;73.55
75281;HTU21D;63874;47.230;39.620;2024-01-15T13:14:25;2.46;73.90
75281;HTU21D;63874;47.230;39.620;2024-01-15T13:16:51;2.42;74.37
75281;HTU21D;63874;47.230;39.620;2024-01-15T13:19:20;2.39;74.41
75281;HTU21D;63874;47.230;39.620;2024-01-15T13:21:47;2.36;74.64
75281;HTU21D;63874;47.230;39.620;2024-01-15T13:24:13;2.31;75.04
75281;HTU21D;63874;47.230;39.620;2024-01-15T13:26:39;2.27;75.25
75281;HTU21D;63874;47.230;39.620;2024-01-15T13:29:06;2.26;75.83
75281;HTU21D;63874;47.230;39.620;2024-01-15T13:31:32;2.22;76.04
75281;HTU21D;63874;47.230;39.620;2024-01-15T13:34:01;2.17;76.24
75281;HTU21D;63874;47.230;39.620;2024-01-15T13:36:29;2.13;76.53
75281;HTU21D;63874;47.230;39.620;2024-01-15T13:38:56;2.10;76.83
75281;HTU21D;63874;47.230;39.620;2024-01-15T13:41:22;2.08;76.80
75281;HTU21D;63874;47.230;39.620;2024-01-15T13:43:55;2.08;77.05
75281;HTU21D;63874;47.230;39.620;2024-01-15T13:46:23;2.07;77.27
75281;HTU21D;63874;47.230;39.620;2024-01-15T13:48:49;2.03;77.26
75281;HTU21D;63874;47.230;39.620;2024-01-15T13:51:15;2.02;77.54
75281;HTU21D;63874;47.230;39.620;2024-01-15T13:53:41;2.02;77.49
75281;HTU21D;63874;47.230;39.620;2024-01-15T13:56:07;2.03;77.60
75281;HTU21D;63874;47.230;39.620;2024-01-15T13:58:35;2.02;77.69
75281;HTU21D;63874;47.230;39.620;2024-01-15T14:01:04;2.01;77.98
75281;HTU21D;63874;47.230;39.620;2024-01-15T14:03:31;1.97;78.26
75281;HTU21D;63874;47.230;39.620;2024-01-15T14:05:57;1.96;78.69
75281;HTU21D;63874;47.230;39.620;2024-01-15T14:08:23;1.93;79.10
75281;HTU21D;63874;47.230;39.620;2024-01-15T14:10:49;1.91;79.37
75281;HTU21D;63874;47.230;39.620;2024-01-15T14:13:14;1.90;79.61
75281;HTU21D;63874;47.230;39.620;2024-01-15T14:15:40;1.88;79.76
75281;HTU21D;63874;47.230;39.620;2024-01-15T14:18:06;1.87;79.72
75281;HTU21D;63874;47.230;39.620;2024-01-15T14:20:35;1.87;79.95
75281;HTU21D;63874;47.230;39.620;2024-01-15T14:23:00;1.85;80.27
75281;HTU21D;63874;47.230;39.620;2024-01-15T14:25:26;1.85;80.79
75281;HTU21D;63874;47.230;39.620;2024-01-15T14:27:52;1.83;80.71
75281;HTU21D;63874;47.230;39.620;2024-01-15T14:30:19;1.81;80.75
75281;HTU21D;63874;47.230;39.620;2024-01-15T14:32:45;1.82;80.90
75281;HTU21D;63874;47.230;39.620;2024-01-15T14:35:11;1.82;80.89
75281;HTU21D;63874;47.230;39.620;2024-01-15T14:37:37;1.84;80.96
75281;HTU21D;63874;47.230;39.620;2024-01-15T14:40:07;1.88;80.98
75281;HTU21D;63874;47.230;39.620;2024-01-15T14:42:36;1.88;81.01
75281;HTU21D;63874;47.230;39.620;2024-01-15T14:45:07;1.88;81.00
75281;HTU21D;63874;47.230;39.620;2024-01-15T14:47:39;1.90;81.00
75281;HTU21D;63874;47.230;39.620;2024-01-15T14:50:06;1.91;81.17
75281;HTU21D;63874;47.230;39.620;2024-01-15T14:52:34;1.92;81.46
75281;HTU21D;63874;47.230;39.620;2024-01-15T14:55:00;1.94;81.55
75281;HTU21D;63874;47.230;39.620;2024-01-15T14:57:25;1.93;81.67
75281;HTU21D;63874;47.230;39.620;2024-01-15T14:59:51;1.93;81.68
75281;HTU21D;63874;47.230;39.620;2024-01-15T15:02:17;1.92;81.76
75281;HTU21D;63874;47.230;39.620;2024-01-15T15:04:44;1.96;81.75
75281;HTU21D;63874;47.230;39.620;2024-01-15T15:07:09;1.93;81.62
75281;HTU21D;63874;47.230;39.620;2024-01-15T15:09:35;1.95;81.86
75281;HTU21D;63874;47.230;39.620;2024-01-15T15:12:05;1.93;81.78
75281;HTU21D;63874;47.230;39.620;2024-01-15T15:14:31;1.92;81.77
75281;HTU21D;63874;47.230;39.620;2024-01-15T15:16:57;1.94;81.82
75281;HTU21D;63874;47.230;39.620;2024-01-15T15:19:23;1.93;81.89
75281;HTU21D;63874;47.230;39.620;2024-01-15T15:21:49;1.95;82.01
75281;HTU21D;63874;47.230;39.620;2024-01-15T15:24:15;1.93;81.99